Time;durP1;ratioP1;P1;durP2;ratioP2;P2;SDS_P1;SDS_P2;PMS_P1;PMS_P2;Temp;Humidity;BMP_temperature;BMP_pressure;BME280_temperature;BME280_humidity;BME280_pressure;Samples;Min_cycle;Max_cycle;Signal;HPM_P1;HPM_P2
2023/04/08 00:00:45;;;;;;;34.00;24.30;;;;;;;5.22;69.99;99245.84;223752;185;139078;-74
2023/04/08 00:05:55;;;;;;;36.80;25.30;;;;;;;5.17;69.81;99249.88;223694;184;136349;-74
2023/04/08 00:10:58;;;;;;;35.10;23.60;;;;;;;5.11;69.71;99248.73;223776;184;145827;-77
2023/04/08 00:16:02;;;;;;;32.20;23.40;;;;;;;5.09;69.67;99251.77;223692;184;139136;-73
2023/04/08 00:21:05;;;;;;;31.90;21.90;;;;;;;5.03;69.46;99251.65;223602;184;136313;-73
2023/04/08 00:26:08;;;;;;;32.80;21.50;;;;;;;4.89;69.51;99252.31;223720;184;145994;-74
2023/04/08 00:31:12;;;;;;;33.70;22.30;;;;;;;4.78;69.46;99250.07;223626;184;138848;-74
2023/04/08 00:36:15;;;;;;;29.20;20.30;;;;;;;4.73;69.55;99252.85;223670;184;137413;-73
2023/04/08 00:41:18;;;;;;;30.80;20.50;;;;;;;4.71;69.55;99256.28;223610;184;146100;-76
2023/04/08 00:46:22;;;;;;;29.30;20.40;;;;;;;4.72;69.60;99259.58;222630;184;138296;-76
2023/04/08 00:51:26;;;;;;;29.20;21.70;;;;;;;4.73;69.70;99264.30;223665;184;137394;-75
2023/04/08 00:56:31;;;;;;;31.10;21.50;;;;;;;4.70;69.80;99268.08;223666;183;145503;-74
2023/04/08 01:01:55;;;;;;;;;;;;;;;4.70;70.08;99271.98;222239;184;139311;-74
2023/04/08 01:07:20;;;;;;;34.50;23.00;;;;;;;4.70;70.24;99273.91;223806;184;128689;-73
2023/04/08 01:12:26;;;;;;;32.70;22.90;;;;;;;4.67;70.19;99279.08;221995;184;144692;-74
2023/04/08 01:17:32;;;;;;;34.30;23.00;;;;;;;4.63;70.39;99283.08;223710;184;138812;-75
2023/04/08 01:22:56;;;;;;;30.70;21.70;;;;;;;4.60;70.67;99281.98;223690;184;136808;-75
2023/04/08 01:28:03;;;;;;;33.80;23.80;;;;;;;4.60;70.59;99285.30;223263;184;145924;-75
2023/04/08 01:33:10;;;;;;;35.90;24.50;;;;;;;4.64;70.67;99281.14;223748;184;138307;-75
2023/04/08 01:38:17;;;;;;;38.90;26.50;;;;;;;4.72;70.76;99283.82;223733;184;137295;-75
2023/04/08 01:43:20;;;;;;;39.60;26.30;;;;;;;4.76;70.68;99279.86;223725;184;145424;-73
2023/04/08 01:48:24;;;;;;;41.60;27.20;;;;;;;4.80;70.72;99277.61;219293;184;138360;-74
2023/04/08 01:53:27;;;;;;;41.40;27.90;;;;;;;4.83;70.54;99278.02;222053;184;137692;-75
2023/04/08 01:58:38;;;;;;;40.00;27.50;;;;;;;4.82;70.67;99277.52;223780;184;145208;-72
2023/04/08 02:03:43;;;;;;;41.30;27.70;;;;;;;4.77;70.71;99281.02;223610;184;138743;-73
2023/04/08 02:08:46;;;;;;;42.30;27.10;;;;;;;4.78;70.98;99280.83;223612;184;137928;-74
2023/04/08 02:13:52;;;;;;;39.30;26.20;;;;;;;4.82;70.99;99277.15;223728;184;146110;-74
2023/04/08 02:19:01;;;;;;;39.40;25.10;;;;;;;4.83;71.16;99280.29;223675;184;137570;-73
2023/04/08 02:24:08;;;;;;;37.90;26.30;;;;;;;4.88;71.23;99281.52;219887;184;141187;-74
2023/04/08 02:29:13;;;;;;;38.70;24.20;;;;;;;4.99;71.20;99285.71;220408;183;145637;-73
2023/04/08 02:34:18;;;;;;;38.80;24.70;;;;;;;5.00;71.01;99287.96;223736;184;138952;-74
2023/04/08 02:39:30;;;;;;;36.20;25.30;;;;;;;4.91;71.00;99292.66;223850;184;136296;-73
2023/04/08 02:44:33;;;;;;;38.50;25.50;;;;;;;4.94;71.26;99287.62;223596;184;145410;-75
2023/04/08 02:49:38;;;;;;;38.60;26.50;;;;;;;4.92;71.35;99299.30;218167;184;138242;-75
2023/04/08 02:54:41;;;;;;;36.70;24.60;;;;;;;4.92;71.44;99295.78;221078;184;136569;-74
2023/04/08 02:59:44;;;;;;;36.20;23.60;;;;;;;4.97;71.40;99296.86;223749;184;145923;-74
2023/04/08 03:04:47;;;;;;;40.80;25.50;;;;;;;4.99;71.17;99299.77;222815;184;140657;-76
2023/04/08 03:09:53;;;;;;;39.70;25.60;;;;;;;5.01;71.33;99304.80;218210;184;137166;-75
2023/04/08 03:14:57;;;;;;;;;;;;;;;5.12;71.29;99308.30;223604;184;145795;-75
2023/04/08 03:20:03;;;;;;;33.20;23.20;;;;;;;5.08;71.18;99311.61;223810;184;138531;-74
2023/04/08 03:25:07;;;;;;;38.00;23.30;;;;;;;5.05;71.07;99312.23;220570;184;136962;-73
2023/04/08 03:30:13;;;;;;;35.50;23.40;;;;;;;4.98;71.18;99305.25;223663;184;146441;-73
2023/04/08 03:35:16;;;;;;;34.60;23.50;;;;;;;4.98;71.38;99314.21;223259;184;139091;-76
2023/04/08 03:40:20;;;;;;;34.80;23.10;;;;;;;5.03;71.28;99321.81;219706;184;138282;-74
2023/04/08 03:45:23;;;;;;;37.70;23.70;;;;;;;5.00;71.06;99326.63;223667;184;147152;-73
2023/04/08 03:50:26;;;;;;;36.60;23.50;;;;;;;4.95;71.31;99332.80;223672;184;138318;-72
2023/04/08 03:55:30;;;;;;;37.20;24.30;;;;;;;4.85;71.37;99336.30;223635;184;137381;-73
2023/04/08 04:00:34;;;;;;;34.80;22.10;;;;;;;4.65;71.74;99342.59;223762;183;147965;-74
2023/04/08 04:05:38;;;;;;;32.00;21.70;;;;;;;4.67;71.85;99349.58;223774;182;138474;-74
2023/04/08 04:10:41;;;;;;;32.80;21.20;;;;;;;4.67;71.96;99356.26;223864;183;139528;-74
2023/04/08 04:15:45;;;;;;;28.70;19.80;;;;;;;4.70;71.84;99366.14;223827;182;148736;-74
2023/04/08 04:20:48;;;;;;;31.40;20.30;;;;;;;4.72;71.62;99373.45;220989;182;140318;-75
2023/04/08 04:25:52;;;;;;;35.00;22.10;;;;;;;4.66;71.80;99374.36;218601;182;137259;-73
2023/04/08 04:30:55;;;;;;;34.50;21.10;;;;;;;4.65;71.94;99378.08;221878;182;147785;-78
2023/04/08 04:35:59;;;;;;;28.10;19.40;;;;;;;4.63;71.93;99383.95;223826;182;139126;-75
2023/04/08 04:41:03;;;;;;;31.10;20.60;;;;;;;4.69;72.05;99384.64;223844;182;138202;-75
2023/04/08 04:46:07;;;;;;;28.30;19.10;;;;;;;4.83;71.55;99386.80;223895;182;147748;-74
2023/04/08 04:51:11;;;;;;;31.00;19.90;;;;;;;4.91;71.33;99394.65;223845;182;138975;-74
2023/04/08 04:56:18;;;;;;;26.80;18.40;;;;;;;4.87;71.23;99400.58;223800;182;136646;-75
2023/04/08 05:01:21;;;;;;;26.80;18.20;;;;;;;4.83;71.13;99402.98;223782;182;146857;-77
2023/04/08 05:06:26;;;;;;;47.50;33.00;;;;;;;4.79;71.37;99404.19;218441;182;138781;-75
2023/04/08 05:11:29;;;;;;;174.30;111.40;;;;;;;4.78;71.46;99406.17;223497;182;137590;-76
2023/04/08 05:16:33;;;;;;;26.20;18.30;;;;;;;4.84;71.74;99419.48;223950;182;147288;-75
2023/04/08 05:21:36;;;;;;;21.30;14.60;;;;;;;5.00;71.14;99421.75;223794;182;138957;-74
2023/04/08 05:26:39;;;;;;;101.90;67.30;;;;;;;5.01;70.39;99428.61;223868;182;136804;-75
2023/04/08 05:31:43;;;;;;;25.80;18.00;;;;;;;4.99;71.04;99426.88;223827;182;147570;-75
2023/04/08 05:36:51;;;;;;;24.00;16.70;;;;;;;5.10;71.01;99431.29;223790;182;138711;-76
2023/04/08 05:41:54;;;;;;;18.20;14.20;;;;;;;5.11;70.49;99436.16;221157;182;137497;-75
2023/04/08 05:46:59;;;;;;;20.80;14.60;;;;;;;5.09;70.36;99441.67;223703;182;147036;-75
2023/04/08 05:52:02;;;;;;;18.70;13.50;;;;;;;5.12;70.38;99445.63;223842;182;138354;-76
2023/04/08 05:57:06;;;;;;;20.10;14.30;;;;;;;5.17;70.30;99456.90;223834;182;137677;-75
2023/04/08 06:02:12;;;;;;;16.40;12.80;;;;;;;5.29;70.18;99460.73;223725;183;147689;-75
2023/04/08 06:07:15;;;;;;;19.50;13.70;;;;;;;5.36;69.93;99468.04;223800;183;138865;-74
2023/04/08 06:12:18;;;;;;;125.10;86.20;;;;;;;5.45;69.78;99481.82;219102;182;139147;-74
2023/04/08 06:17:22;;;;;;;18.70;14.00;;;;;;;5.48;69.08;99487.52;218122;182;147636;-75
2023/04/08 06:22:26;;;;;;;28.60;21.20;;;;;;;5.57;69.32;99493.71;223474;182;139015;-75
2023/04/08 06:27:29;;;;;;;18.00;13.10;;;;;;;5.67;69.36;99498.14;223836;182;137406;-75
2023/04/08 06:32:33;;;;;;;14.90;12.30;;;;;;;5.65;68.75;99496.25;223692;183;147635;-75
2023/04/08 06:37:37;;;;;;;17.90;12.60;;;;;;;5.62;68.92;99499.17;223783;182;139854;-76
2023/04/08 06:42:43;;;;;;;16.80;12.40;;;;;;;5.67;68.82;99508.33;223865;182;137259;-75
2023/04/08 06:48:11;;;;;;;18.90;12.70;;;;;;;5.75;69.34;99510.33;223882;182;147498;-81
2023/04/08 06:53:14;;;;;;;17.10;12.60;;;;;;;6.07;68.76;99507.14;223876;182;138935;-76
2023/04/08 06:58:17;;;;;;;157.00;115.60;;;;;;;6.29;68.52;99506.67;223843;182;136983;-77
2023/04/08 07:03:21;;;;;;;16.00;12.60;;;;;;;6.36;67.59;99508.70;222858;182;147821;-79
2023/04/08 07:08:26;;;;;;;14.50;11.70;;;;;;;6.40;67.04;99508.55;220898;182;140857;-75
2023/04/08 07:13:29;;;;;;;17.20;12.70;;;;;;;6.40;67.13;99518.78;222710;182;137493;-75
2023/04/08 07:18:33;;;;;;;18.00;13.00;;;;;;;6.40;67.40;99518.23;223813;182;147058;-75
2023/04/08 07:23:36;;;;;;;19.20;13.40;;;;;;;6.44;67.40;99516.36;223806;182;138300;-75
2023/04/08 07:28:40;;;;;;;19.90;15.30;;;;;;;6.47;67.21;99525.05;223901;182;137574;-77
2023/04/08 07:33:44;;;;;;;21.10;15.80;;;;;;;6.51;67.37;99532.30;223867;183;146895;-76
2023/04/08 07:38:48;;;;;;;21.50;13.40;;;;;;;6.53;66.96;99541.91;222005;182;138827;-75
2023/04/08 07:43:51;;;;;;;18.90;13.50;;;;;;;6.53;66.63;99547.75;219778;183;136948;-74
2023/04/08 07:48:54;;;;;;;15.80;12.10;;;;;;;6.52;66.65;99548.11;221466;182;147658;-75
2023/04/08 07:53:58;;;;;;;17.50;12.90;;;;;;;6.51;66.66;99542.86;223955;183;138525;-74
2023/04/08 07:59:02;;;;;;;19.10;12.80;;;;;;;6.48;66.69;99545.45;223915;183;136758;-74
2023/04/08 08:04:05;;;;;;;17.10;13.30;;;;;;;6.51;66.65;99558.58;223849;183;147475;-76
2023/04/08 08:09:08;;;;;;;107.10;71.80;;;;;;;6.63;66.91;99561.13;223825;183;139682;-74
2023/04/08 08:14:13;;;;;;;20.20;14.20;;;;;;;6.79;66.84;99556.29;223701;182;137053;-75
2023/04/08 08:19:17;;;;;;;71.10;47.50;;;;;;;6.88;66.72;99555.60;223775;183;147492;-74
2023/04/08 08:24:20;;;;;;;26.40;18.40;;;;;;;6.99;66.67;99548.60;223192;182;138368;-75
2023/04/08 08:29:24;;;;;;;21.90;16.20;;;;;;;7.05;66.17;99549.10;221018;182;137142;-74
2023/04/08 08:34:27;;;;;;;20.70;15.80;;;;;;;7.04;65.81;99556.02;223799;183;147648;-74
2023/04/08 08:39:30;;;;;;;23.20;17.30;;;;;;;7.08;65.80;99554.98;223656;182;138397;-73
2023/04/08 08:44:34;;;;;;;27.30;19.40;;;;;;;7.07;65.79;99560.14;223758;183;137406;-72
2023/04/08 08:49:38;;;;;;;32.40;21.80;;;;;;;7.09;66.02;99555.30;223646;182;147649;-73
2023/04/08 08:54:43;;;;;;;29.70;21.00;;;;;;;7.10;66.22;99560.33;223707;182;138404;-74
2023/04/08 08:59:46;;;;;;;27.80;20.30;;;;;;;7.14;66.12;99559.70;223796;182;138751;-74
2023/04/08 09:05:00;;;;;;;29.40;20.70;;;;;;;7.22;66.30;99563.06;223653;182;147272;-74
2023/04/08 09:10:05;;;;;;;28.70;21.30;;;;;;;7.34;66.10;99571.23;223791;182;139054;-74
2023/04/08 09:15:09;;;;;;;29.80;20.00;;;;;;;7.51;66.19;99576.39;223719;182;137679;-72
2023/04/08 09:20:14;;;;;;;31.00;20.40;;;;;;;7.70;65.82;99581.58;223754;183;147273;-76
2023/04/08 09:25:25;;;;;;;70.20;47.30;;;;;;;8.02;67.12;99580.77;223750;183;138294;-75
2023/04/08 09:30:31;;;;;;;28.30;19.90;;;;;;;8.36;65.38;99572.41;223676;182;136956;-73
2023/04/08 09:35:35;;;;;;;25.20;18.90;;;;;;;8.38;64.57;99584.16;223810;182;147187;-76
2023/04/08 09:40:41;;;;;;;23.90;18.00;;;;;;;8.30;64.21;99590.86;223714;182;139007;-75
2023/04/08 09:45:47;;;;;;;24.40;17.40;;;;;;;8.16;64.11;99594.10;223786;182;137480;-75
2023/04/08 09:50:53;;;;;;;24.50;18.00;;;;;;;8.14;64.40;99595.08;223735;183;146738;-73
2023/04/08 09:55:59;;;;;;;23.00;17.70;;;;;;;8.11;64.36;99597.00;223697;183;138134;-78
2023/04/08 10:01:04;;;;;;;277.70;185.40;;;;;;;8.03;64.37;99603.87;223502;182;136764;-75
2023/04/08 10:06:10;;;;;;;32.10;23.30;;;;;;;8.08;64.90;99599.39;223794;182;147120;-77
2023/04/08 10:11:15;;;;;;;30.50;22.60;;;;;;;8.05;64.54;99601.84;223657;182;137912;-75
2023/04/08 10:16:25;;;;;;;24.90;20.00;;;;;;;7.92;64.30;99606.27;223795;182;136910;-76
2023/04/08 10:21:42;;;;;;;23.90;18.80;;;;;;;7.84;64.46;99605.39;223719;183;147051;-74
2023/04/08 10:26:47;;;;;;;24.40;18.30;;;;;;;7.82;64.70;99605.11;223254;182;139024;-74
2023/04/08 10:31:53;;;;;;;26.40;19.90;;;;;;;7.78;64.75;99596.45;223835;182;138136;-74
2023/04/08 10:36:58;;;;;;;26.80;19.50;;;;;;;7.76;64.93;99597.20;223810;182;147227;-74
2023/04/08 10:42:02;;;;;;;288.80;206.20;;;;;;;7.78;64.98;99597.52;223762;183;139146;-71
2023/04/08 10:47:06;;;;;;;28.40;20.50;;;;;;;7.81;64.60;99598.58;223515;183;138576;-74
2023/04/08 10:52:20;;;;;;;26.50;18.20;;;;;;;7.73;64.21;99602.14;223706;182;147193;-72
2023/04/08 10:57:24;;;;;;;25.00;18.50;;;;;;;7.67;64.61;99605.89;223671;182;138406;-73
2023/04/08 11:02:32;;;;;;;21.60;17.10;;;;;;;7.75;64.71;99604.33;223569;183;138185;-72
2023/04/08 11:07:40;;;;;;;21.60;16.70;;;;;;;7.81;64.65;99601.45;223466;182;147253;-71
2023/04/08 11:12:44;;;;;;;22.10;17.10;;;;;;;7.86;64.49;99599.12;223368;185;139481;-72
2023/04/08 11:17:48;;;;;;;21.90;17.20;;;;;;;7.90;64.59;99597.55;223502;183;137475;-73
2023/04/08 11:22:52;;;;;;;22.80;17.30;;;;;;;7.93;64.57;99600.07;223440;183;147919;-73
2023/04/08 11:27:56;;;;;;;23.40;17.80;;;;;;;7.96;64.37;99604.34;223527;183;139095;-71
2023/04/08 11:33:00;;;;;;;22.30;16.20;;;;;;;7.92;64.40;99608.73;223705;183;136736;-71
2023/04/08 11:38:04;;;;;;;23.00;16.70;;;;;;;7.92;64.55;99600.63;223701;182;147885;-74
2023/04/08 11:43:14;;;;;;;22.70;16.40;;;;;;;7.92;64.79;99606.65;223706;182;138427;-72
2023/04/08 11:48:17;;;;;;;22.80;15.00;;;;;;;7.92;65.12;99612.67;223619;182;137831;-72
2023/04/08 11:53:24;;;;;;;180.20;113.80;;;;;;;7.91;64.98;99606.49;223676;182;148351;-72
2023/04/08 11:58:28;;;;;;;25.40;17.70;;;;;;;7.95;64.99;99604.40;223642;182;139195;-73
2023/04/08 12:03:31;;;;;;;22.20;15.70;;;;;;;7.96;65.26;99598.51;223676;183;137214;-71
2023/04/08 12:08:35;;;;;;;24.80;16.70;;;;;;;7.98;65.37;99595.23;223617;182;147315;-72
2023/04/08 12:13:38;;;;;;;18.70;14.00;;;;;;;7.98;65.46;99592.93;222683;182;139886;-78
2023/04/08 12:18:42;;;;;;;22.40;17.00;;;;;;;8.03;65.55;99590.61;219975;185;138704;-76
2023/04/08 12:23:45;;;;;;;21.40;16.70;;;;;;;8.11;65.43;99583.58;223501;183;147201;-74
2023/04/08 12:28:49;;;;;;;23.40;16.90;;;;;;;8.18;65.47;99580.61;223564;183;138725;-74
2023/04/08 12:33:53;;;;;;;23.10;17.40;;;;;;;8.22;65.29;99580.93;223602;194;140519;-72
2023/04/08 12:38:56;;;;;;;25.40;18.70;;;;;;;8.27;65.20;99581.27;223661;182;148014;-73
2023/04/08 12:44:00;;;;;;;150.20;116.80;;;;;;;8.26;65.38;99580.08;222475;183;138253;-76
2023/04/08 12:49:03;;;;;;;42.30;30.60;;;;;;;8.39;66.20;99578.10;219623;183;137349;-77
2023/04/08 12:54:08;;;;;;;25.30;20.10;;;;;;;8.50;65.35;99581.14;222805;183;148211;-80
2023/04/08 12:59:23;;;;;;;25.50;19.50;;;;;;;8.43;65.14;99578.84;218029;182;138550;-81
2023/04/08 13:04:26;;;;;;;28.00;19.30;;;;;;;8.35;65.28;99580.04;218350;188;137385;-77
2023/04/08 13:09:33;;;;;;;29.90;20.20;;;;;;;8.33;65.50;99581.18;220146;182;147817;-71
2023/04/08 13:14:37;;;;;;;27.00;19.40;;;;;;;8.34;65.55;99576.55;220989;183;140221;-65
2023/04/08 13:19:40;;;;;;;152.70;102.90;;;;;;;8.42;66.29;99575.15;223611;179;137430;-64
2023/04/08 13:24:44;;;;;;;28.80;19.90;;;;;;;8.63;66.13;99573.86;223595;183;147666;-63
2023/04/08 13:29:47;;;;;;;29.10;18.40;;;;;;;8.65;65.31;99572.50;223555;182;138676;-66
2023/04/08 13:34:50;;;;;;;25.50;18.90;;;;;;;8.69;65.00;99573.40;223645;215;137855;-67
2023/04/08 13:39:53;;;;;;;29.20;19.20;;;;;;;8.74;64.91;99570.16;223617;216;147111;-68
2023/04/08 13:44:56;;;;;;;26.70;19.00;;;;;;;8.82;64.77;99570.17;223605;182;138396;-68
2023/04/08 13:50:00;;;;;;;26.60;18.20;;;;;;;8.86;64.56;99573.50;223592;182;136813;-68
2023/04/08 13:55:04;;;;;;;23.90;18.00;;;;;;;8.86;64.34;99570.52;223381;182;148139;-69
2023/04/08 14:00:08;;;;;;;24.50;18.60;;;;;;;8.84;64.41;99564.08;223454;186;138320;-68
2023/04/08 14:05:14;;;;;;;24.20;17.30;;;;;;;8.81;64.27;99567.91;223444;182;137365;-67
2023/04/08 14:10:17;;;;;;;28.10;17.60;;;;;;;9.13;67.91;99569.89;223538;184;147229;-67
2023/04/08 14:15:20;;;;;;;22.90;17.60;;;;;;;9.92;63.79;99560.20;223474;182;138400;-67
2023/04/08 14:20:24;;;;;;;26.40;18.90;;;;;;;9.67;62.87;99560.73;223259;182;137332;-67
2023/04/08 14:25:28;;;;;;;155.80;107.30;;;;;;;9.53;63.13;99561.64;221094;182;147862;-68
2023/04/08 14:30:32;;;;;;;26.20;18.70;;;;;;;9.49;63.18;99563.45;220821;194;141037;-70
2023/04/08 14:35:36;;;;;;;22.90;18.10;;;;;;;9.37;63.48;99569.67;220939;184;137105;-70
2023/04/08 14:40:41;;;;;;;24.60;17.20;;;;;;;9.27;63.57;99573.52;223555;215;147648;-68
2023/04/08 14:45:45;;;;;;;26.90;18.80;;;;;;;9.18;63.66;99571.28;222751;181;138296;-68
2023/04/08 14:50:49;;;;;;;27.40;17.30;;;;;;;9.10;63.85;99574.71;220916;183;137871;-67
2023/04/08 14:55:53;;;;;;;24.00;18.00;;;;;;;9.01;64.12;99577.04;223671;184;149781;-71
2023/04/08 15:00:58;;;;;;;24.10;17.60;;;;;;;8.95;64.33;99579.11;223514;184;138658;-70
2023/04/08 15:06:07;;;;;;;27.00;18.90;;;;;;;8.89;64.55;99583.27;223381;183;137895;-69
2023/04/08 15:11:11;;;;;;;154.40;101.40;;;;;;;8.96;65.47;99578.34;223610;183;146997;-67
2023/04/08 17:25:30;;;;;;;28.40;20.00;;;;;;;8.91;65.13;99614.85;220111;192;665995;-70
2023/04/08 17:30:35;;;;;;;;;;;;;;;8.85;65.10;99617.98;220983;186;137384;-69
2023/04/08 17:35:39;;;;;;;26.60;20.70;;;;;;;8.82;65.24;99619.70;220845;186;144254;-69
2023/04/08 17:40:43;;;;;;;28.30;20.70;;;;;;;8.76;65.38;99624.73;223507;184;138345;-68
2023/04/08 17:45:48;;;;;;;28.50;21.70;;;;;;;8.72;65.38;99632.52;221241;184;137328;-70
2023/04/08 17:51:03;;;;;;;30.80;21.10;;;;;;;8.67;65.44;99635.08;223483;218;143556;-70
2023/04/08 17:56:06;;;;;;;28.30;21.40;;;;;;;8.57;65.64;99641.70;223404;184;139879;-70
2023/04/08 18:01:10;;;;;;;32.90;22.20;;;;;;;8.51;65.77;99645.13;223663;183;136466;-69
2023/04/08 18:06:13;;;;;;;30.20;21.80;;;;;;;8.46;65.84;99645.52;223585;183;143553;-68
2023/04/08 18:11:16;;;;;;;32.70;23.10;;;;;;;8.40;66.09;99653.94;223579;184;138512;-70
2023/04/08 18:16:20;;;;;;;32.10;24.30;;;;;;;8.36;66.31;99662.58;223693;217;137446;-73
2023/04/08 18:21:24;;;;;;;32.10;23.50;;;;;;;8.32;66.47;99667.85;223553;209;147126;-71
2023/04/08 18:27:22;;;;;;;;;;;;;;;;;;;;;
2023/04/08 18:32:46;;;;;;;119.40;75.00;;;;;;;8.43;67.25;99669.91;223700;188;138227;-68
2023/04/08 18:38:35;;;;;;;34.50;24.80;;;;;;;8.55;66.72;99669.19;223678;185;145252;-69
2023/04/08 18:43:40;;;;;;;39.60;24.90;;;;;;;8.58;66.56;99672.09;223435;184;139826;-71
2023/04/08 18:48:58;;;;;;;;;;;;;;;;;;;;;
2023/04/08 18:54:52;;;;;;;34.90;25.90;;;;;;;8.55;66.44;99676.27;223734;187;145279;-70
2023/04/08 18:59:58;;;;;;;36.50;26.10;;;;;;;8.51;66.63;99676.28;223370;187;140573;-68
2023/04/08 19:05:02;;;;;;;37.20;26.40;;;;;;;8.46;66.82;99676.84;223623;188;136735;-71
2023/04/08 19:10:06;;;;;;;39.60;27.40;;;;;;;8.42;66.98;99681.09;223606;184;144923;-72
2023/04/08 19:15:10;;;;;;;37.30;26.10;;;;;;;8.39;67.08;99687.77;223615;182;138505;-76
2023/04/08 19:20:13;;;;;;;36.50;27.20;;;;;;;8.33;67.33;99684.45;223670;183;137017;-74
2023/04/08 19:31:39;;;;;;;35.60;25.90;;;;;;;8.23;67.63;99678.85;223782;184;138774;-71
2023/04/08 19:37:13;;;;;;;38.60;24.90;;;;;;;8.23;67.89;99678.65;223646;183;137310;-70
2023/04/08 19:48:08;;;;;;;35.40;24.70;;;;;;;8.38;67.76;99682.49;223741;183;138499;-69
2023/04/08 19:53:13;;;;;;;39.80;26.70;;;;;;;8.41;67.71;99684.66;223744;183;136798;-71
2023/04/08 19:58:17;;;;;;;51.60;34.80;;;;;;;8.40;67.77;99681.33;223694;182;145338;-67
2023/04/08 20:03:29;;;;;;;44.50;29.70;;;;;;;8.38;67.69;99681.95;223664;184;138713;-71
2023/04/08 20:08:36;;;;;;;48.40;31.50;;;;;;;8.35;67.85;99680.28;223831;183;136807;-69
2023/04/08 20:13:55;;;;;;;46.70;31.30;;;;;;;8.33;67.82;99679.86;223582;183;145462;-71
2023/04/08 20:25:25;;;;;;;49.60;30.40;;;;;;;8.27;68.15;99678.13;223557;182;136603;-72
2023/04/08 20:42:51;;;;;;;43.60;28.90;;;;;;;8.27;68.41;99678.69;219901;190;666039;-85
2023/04/08 20:47:55;;;;;;;48.90;30.30;;;;;;;8.23;68.50;99677.59;223250;185;136844;-82
2023/04/08 20:52:58;;;;;;;47.30;31.80;;;;;;;8.20;68.33;99672.58;223387;190;143514;-83
2023/04/08 20:58:04;;;;;;;47.60;32.20;;;;;;;8.14;68.41;99675.66;223472;195;138748;-85
2023/04/08 21:03:07;;;;;;;53.90;32.70;;;;;;;8.08;68.69;99685.48;222361;218;136453;-84
2023/04/08 21:08:11;;;;;;;53.20;33.20;;;;;;;8.04;68.81;99680.85;222576;184;143408;-80
2023/04/08 21:13:14;;;;;;;52.00;34.20;;;;;;;8.02;69.05;99686.43;220119;184;140839;-80
2023/04/08 21:18:17;;;;;;;47.90;33.00;;;;;;;8.02;69.07;99685.92;219546;184;136816;-81
2023/04/08 21:23:21;;;;;;;49.80;31.60;;;;;;;7.97;69.04;99684.50;223643;201;143422;-81
2023/04/08 21:28:25;;;;;;;46.70;30.50;;;;;;;7.94;69.15;99688.70;223476;202;138300;-85
2023/04/08 21:33:28;;;;;;;48.70;31.60;;;;;;;7.95;69.21;99689.54;223450;185;137111;-84
2023/04/08 21:38:33;;;;;;;49.90;32.00;;;;;;;7.96;69.06;99688.09;222958;184;145312;-86
2023/04/08 21:43:36;;;;;;;53.10;34.50;;;;;;;7.95;69.17;99688.15;221608;184;138710;-84
2023/04/08 21:48:39;;;;;;;53.50;34.50;;;;;;;7.93;69.25;99691.23;223074;184;136758;-85
2023/04/08 21:53:43;;;;;;;59.60;37.30;;;;;;;7.92;69.33;99689.52;223486;218;145173;-84
2023/04/08 21:58:47;;;;;;;57.10;37.50;;;;;;;7.92;69.65;99681.73;218566;218;138384;-83
2023/04/08 22:03:52;;;;;;;54.50;36.70;;;;;;;7.92;69.63;99676.08;220408;185;136727;-81
2023/04/08 22:08:56;;;;;;;56.10;38.00;;;;;;;7.89;69.53;99677.61;223475;185;145441;-82
2023/04/08 22:13:59;;;;;;;52.10;35.70;;;;;;;7.84;69.57;99683.13;223426;184;138719;-87
2023/04/08 22:19:03;;;;;;;52.60;35.00;;;;;;;7.79;69.80;99684.70;223349;185;137134;-84
2023/04/08 22:24:06;;;;;;;54.70;36.00;;;;;;;7.83;69.98;99683.33;223450;184;145815;-85
2023/04/08 22:29:10;;;;;;;50.90;34.40;;;;;;;7.89;69.80;99685.04;223682;184;138144;-87
2023/04/08 22:34:14;;;;;;;53.30;34.80;;;;;;;7.88;69.70;99678.89;223552;184;137334;-85
2023/04/08 22:39:17;;;;;;;54.40;35.10;;;;;;;7.86;69.80;99680.18;223812;183;145523;-85
2023/04/08 22:44:21;;;;;;;54.40;34.60;;;;;;;7.85;69.83;99679.69;223711;183;138927;-85
2023/04/08 22:49:25;;;;;;;52.70;33.80;;;;;;;7.82;69.79;99674.52;223868;183;136866;-85
2023/04/08 22:54:28;;;;;;;53.70;34.40;;;;;;;7.75;69.83;99675.55;220796;183;145081;-86
2023/04/08 22:59:39;;;;;;;50.10;34.10;;;;;;;7.71;70.02;99668.45;223701;182;139823;-86
2023/04/08 23:04:47;;;;;;;50.00;32.00;;;;;;;7.69;70.00;99669.23;222627;182;136985;-87
2023/04/08 23:09:58;;;;;;;52.20;32.10;;;;;;;7.63;69.61;99671.93;223658;184;147610;-84
2023/04/08 23:15:02;;;;;;;48.20;31.20;;;;;;;7.59;69.62;99677.55;220399;183;138132;-86
2023/04/08 23:20:06;;;;;;;51.10;31.70;;;;;;;7.55;69.40;99686.20;221353;183;136282;-86
2023/04/08 23:25:09;;;;;;;49.30;31.50;;;;;;;7.50;69.14;99690.66;223784;183;144920;-87
2023/04/08 23:30:12;;;;;;;51.70;32.50;;;;;;;7.38;68.98;99681.02;223772;183;139206;-84
2023/04/08 23:35:16;;;;;;;50.20;32.80;;;;;;;7.30;69.30;99679.75;223910;183;136933;-84
2023/04/08 23:40:20;;;;;;;50.90;33.70;;;;;;;7.25;69.46;99675.72;223239;183;145096;-85
2023/04/08 23:45:23;;;;;;;55.80;34.90;;;;;;;7.18;69.56;99673.35;223074;184;140007;-85
2023/04/08 23:50:26;;;;;;;50.80;31.70;;;;;;;7.07;69.81;99672.34;223806;183;136747;-87
2023/04/08 23:55:30;;;;;;;52.70;33.70;;;;;;;7.00;70.07;99684.05;220067;183;145016;-87
